createdAt,value
2022-11-21T00:04:58.123Z,5.70
2022-11-21T00:10:01.180Z,5.17
2022-11-21T00:15:05.444Z,4.73
2022-11-21T00:20:08.798Z,4.40
2022-11-21T00:25:12.831Z,4.12
2022-11-21T00:30:15.945Z,3.86
2022-11-21T00:35:19.114Z,3.64
2022-11-21T00:40:22.134Z,3.48
2022-11-21T00:45:25.052Z,3.34
2022-11-21T00:50:27.974Z,3.24
2022-11-21T00:55:31.160Z,4.43
2022-11-21T01:00:34.270Z,8.29
2022-11-21T01:05:37.307Z,8.79
2022-11-21T01:10:40.222Z,7.05
2022-11-21T01:15:43.140Z,6.06
2022-11-21T01:20:46.080Z,5.39
2022-11-21T01:25:48.980Z,4.83
2022-11-21T01:30:51.931Z,4.38
2022-11-21T01:35:54.907Z,4.01
2022-11-21T01:40:57.784Z,3.70
2022-11-21T01:46:04.180Z,3.50
2022-11-21T01:51:18.559Z,3.32
2022-11-21T01:56:22.511Z,3.16
2022-11-21T02:01:25.529Z,4.29
2022-11-21T02:06:29.577Z,8.08
2022-11-21T02:11:35.319Z,8.75
2022-11-21T02:16:38.983Z,7.00
2022-11-21T02:21:49.868Z,6.01
2022-11-21T02:26:52.792Z,5.37
2022-11-21T02:32:00.225Z,4.88
2022-11-21T02:37:03.496Z,4.46
2022-11-21T02:42:18.572Z,4.10
2022-11-21T02:47:23.695Z,3.83
2022-11-21T02:52:27.268Z,3.60
2022-11-21T02:57:30.179Z,3.41
2022-11-21T03:02:33.105Z,3.25
2022-11-21T03:07:36.142Z,3.13
2022-11-21T03:12:41.128Z,2.98
2022-11-21T03:17:44.111Z,2.85
2022-11-21T03:22:47.095Z,3.98
2022-11-21T03:27:54.498Z,7.73
2022-11-21T03:32:58.020Z,8.09
2022-11-21T03:38:01.144Z,6.39
2022-11-21T03:43:08.024Z,5.41
2022-11-21T03:48:10.934Z,4.73
2022-11-21T03:53:13.877Z,4.16
2022-11-21T03:58:16.777Z,3.70
2022-11-21T04:03:19.694Z,3.33
2022-11-21T04:08:22.727Z,3.03
2022-11-21T04:13:25.831Z,2.81
2022-11-21T04:18:29.020Z,2.64
2022-11-21T04:23:32.367Z,2.48
2022-11-21T04:28:35.405Z,2.35
2022-11-21T04:33:39.343Z,3.56
2022-11-21T04:38:42.420Z,7.36
2022-11-21T04:43:45.359Z,7.23
2022-11-21T04:48:48.344Z,5.65
2022-11-21T04:53:51.252Z,4.76
2022-11-21T04:58:54.280Z,4.20
2022-11-21T05:03:57.224Z,3.70
2022-11-21T05:09:00.181Z,3.22
2022-11-21T05:14:03.337Z,2.87
2022-11-21T05:19:07.700Z,2.62
2022-11-21T05:24:10.881Z,2.39
2022-11-21T05:29:13.963Z,2.20
2022-11-21T05:34:16.969Z,2.00
2022-11-21T05:39:19.996Z,1.86
2022-11-21T05:44:22.950Z,1.76
2022-11-21T05:49:25.978Z,1.67
2022-11-21T05:54:29.175Z,1.61
2022-11-21T05:59:32.294Z,2.93
2022-11-21T06:04:35.324Z,6.83
2022-11-21T06:09:38.403Z,7.33
2022-11-21T06:14:41.316Z,5.61
2022-11-21T06:19:44.280Z,4.63
2022-11-21T06:24:47.232Z,3.94
2022-11-21T06:29:50.177Z,3.40
2022-11-21T06:34:53.186Z,3.00
2022-11-21T06:39:56.217Z,2.72
2022-11-21T06:44:59.130Z,2.51
2022-11-21T06:50:02.147Z,2.32
2022-11-21T06:55:05.506Z,2.21
2022-11-21T07:00:08.975Z,2.17
2022-11-21T07:05:11.998Z,2.11
2022-11-21T07:10:15.023Z,2.04
2022-11-21T07:15:17.920Z,3.27
2022-11-21T07:20:20.873Z,7.11
2022-11-21T07:25:23.884Z,8.12
2022-11-21T07:30:27.584Z,6.35
2022-11-21T07:35:30.561Z,5.33
2022-11-21T07:40:34.861Z,4.67
2022-11-21T07:45:38.474Z,4.18
2022-11-21T07:50:41.468Z,3.80
2022-11-21T07:55:44.391Z,3.53
2022-11-21T08:00:47.356Z,3.35
2022-11-21T08:05:50.290Z,3.27
2022-11-21T08:10:53.207Z,3.25
2022-11-21T08:15:56.113Z,3.29
2022-11-21T08:21:01.559Z,3.37
2022-11-21T08:26:04.601Z,4.75
2022-11-21T08:31:07.568Z,8.67
2022-11-21T08:36:10.778Z,9.58
2022-11-21T08:41:32.238Z,8.06
2022-11-21T08:46:37.383Z,7.19
2022-11-21T08:51:40.304Z,6.69
2022-11-21T08:56:44.110Z,6.31
2022-11-21T09:01:47.140Z,5.96
2022-11-21T09:06:50.174Z,5.69
2022-11-21T09:11:53.108Z,5.51
2022-11-21T09:17:15.613Z,5.42
2022-11-21T09:22:18.571Z,5.38
2022-11-21T09:27:21.514Z,5.38
2022-11-21T09:32:24.487Z,6.55
2022-11-21T09:37:27.751Z,10.37
2022-11-21T09:43:07.600Z,10.77
2022-11-21T09:48:28.022Z,9.19
2022-11-21T09:53:37.790Z,8.36
2022-11-21T09:58:57.948Z,7.79
2022-11-21T10:04:02.427Z,7.28
2022-11-21T10:09:25.595Z,6.90
2022-11-21T10:14:44.985Z,6.58
2022-11-21T10:20:09.545Z,6.32
2022-11-21T10:25:26.919Z,6.12
2022-11-21T10:30:30.699Z,5.98
2022-11-21T10:35:44.238Z,5.91
2022-11-21T10:41:07.675Z,5.84
2022-11-21T10:46:10.802Z,5.74
2022-11-21T10:51:23.242Z,5.66
2022-11-21T10:56:28.036Z,6.98
2022-11-21T11:01:34.141Z,10.67
2022-11-21T11:06:38.595Z,10.95
2022-11-21T11:11:41.538Z,9.36
2022-11-21T11:16:47.044Z,8.60
2022-11-21T11:21:50.904Z,8.11
2022-11-21T11:27:02.855Z,7.70
2022-11-21T11:32:21.588Z,7.34
2022-11-21T11:37:47.255Z,7.06
2022-11-21T11:43:29.935Z,6.85
2022-11-21T11:49:03.271Z,6.68
2022-11-21T11:54:11.333Z,6.53
2022-11-21T11:59:22.819Z,6.41
2022-11-21T12:04:33.997Z,6.34
2022-11-21T12:09:57.498Z,6.33
2022-11-21T12:15:21.726Z,6.33
2022-11-21T12:20:31.711Z,7.71
2022-11-21T12:25:41.107Z,11.38
2022-11-21T12:31:00.199Z,11.36
2022-11-21T12:36:31.409Z,9.90
2022-11-21T12:42:12.843Z,9.09
2022-11-21T12:48:18.038Z,8.51
2022-11-21T12:53:58.147Z,8.05
2022-11-21T12:59:04.564Z,7.69
2022-11-21T13:04:17.453Z,7.45
2022-11-21T13:09:23.480Z,7.26
2022-11-21T13:14:48.217Z,7.10
2022-11-21T13:20:17.390Z,6.97
2022-11-21T13:25:32.381Z,6.85
2022-11-21T13:30:46.037Z,6.76
2022-11-21T13:35:51.530Z,7.99
2022-11-21T13:41:13.227Z,11.55
2022-11-21T13:46:56.334Z,11.63
2022-11-21T13:52:07.073Z,10.06
2022-11-21T13:57:10.228Z,9.48
2022-11-21T14:02:51.911Z,8.97
2022-11-21T14:08:20.790Z,8.46
2022-11-21T14:13:32.837Z,8.05
2022-11-21T14:18:38.343Z,7.72
2022-11-21T14:23:44.444Z,7.44
2022-11-21T14:28:48.104Z,7.21
2022-11-21T14:33:57.285Z,7.01
2022-11-21T14:39:36.889Z,6.83
2022-11-21T14:44:29.498Z,6.65
2022-11-21T14:49:32.532Z,6.50
2022-11-21T14:55:06.088Z,7.68
2022-11-21T15:00:36.044Z,11.50
2022-11-21T15:06:08.804Z,11.57
2022-11-21T15:11:03.477Z,10.00
2022-11-21T15:16:06.611Z,9.18
2022-11-21T15:21:15.960Z,8.56
2022-11-21T15:26:33.158Z,8.06
2022-11-21T15:31:36.228Z,7.61
2022-11-21T15:36:39.289Z,7.25
2022-11-21T15:41:42.369Z,6.96
2022-11-21T15:46:47.120Z,6.69
2022-11-21T15:52:06.536Z,6.50
2022-11-21T15:57:16.743Z,6.34
2022-11-21T16:02:20.410Z,7.46
2022-11-21T16:07:23.471Z,11.06
2022-11-21T16:12:26.352Z,11.77
2022-11-21T16:17:29.352Z,10.13
2022-11-21T16:22:32.438Z,9.18
2022-11-21T16:27:35.435Z,8.53
2022-11-21T16:32:38.486Z,8.03
2022-11-21T16:37:41.501Z,7.64
2022-11-21T16:42:44.501Z,7.31
2022-11-21T16:47:48.956Z,7.05
2022-11-21T16:52:54.328Z,6.85
2022-11-21T16:58:00.265Z,6.69
2022-11-21T17:03:03.700Z,7.72
2022-11-21T17:08:07.095Z,11.27
2022-11-21T17:13:10.041Z,11.85
2022-11-21T17:18:12.997Z,10.28
2022-11-21T17:23:15.955Z,9.38
2022-11-21T17:28:18.861Z,8.74
2022-11-21T17:33:22.032Z,8.25
2022-11-21T17:38:24.987Z,7.83
2022-11-21T17:43:28.968Z,7.49
2022-11-21T17:48:34.151Z,7.22
2022-11-21T17:53:40.053Z,7.01
2022-11-21T17:58:43.317Z,6.83
2022-11-21T18:03:57.521Z,6.70
2022-11-21T18:09:00.714Z,7.93
2022-11-21T18:14:04.986Z,11.44
2022-11-21T18:19:12.979Z,11.63
2022-11-21T18:24:16.112Z,10.09
2022-11-21T18:34:42.079Z,8.63
2022-11-21T18:39:45.023Z,8.15
2022-11-21T18:44:48.103Z,7.78
2022-11-21T18:49:51.121Z,7.47
2022-11-21T18:54:54.078Z,7.22
2022-11-21T18:59:57.105Z,7.02
2022-11-21T19:05:00.157Z,6.86
2022-11-21T19:10:35.191Z,7.99
2022-11-21T19:15:26.386Z,11.63
2022-11-21T19:20:29.319Z,12.38
2022-11-21T19:25:32.922Z,10.77
2022-11-21T19:30:36.468Z,9.78
2022-11-21T19:35:40.386Z,9.12
2022-11-21T19:41:02.195Z,8.61
2022-11-21T19:46:05.330Z,8.16
2022-11-21T19:51:09.046Z,7.80
2022-11-21T19:56:14.123Z,7.50
2022-11-21T20:01:20.814Z,7.25
2022-11-21T20:06:32.874Z,7.05
2022-11-21T20:11:38.427Z,6.92
2022-11-21T20:16:46.875Z,8.13
2022-11-21T20:21:50.321Z,11.81
2022-11-21T20:26:53.939Z,12.01
2022-11-21T20:31:59.357Z,10.47
2022-11-21T20:37:03.300Z,9.60
2022-11-21T20:42:06.929Z,9.01
2022-11-21T20:47:10.372Z,8.49
2022-11-21T20:57:36.257Z,7.65
2022-11-21T21:02:39.299Z,7.35
2022-11-21T21:07:42.340Z,7.14
2022-11-21T21:12:48.603Z,6.99
2022-11-21T21:17:51.764Z,8.19
2022-11-21T21:22:55.756Z,11.72
2022-11-21T21:27:58.812Z,12.45
2022-11-21T21:33:01.937Z,10.81
2022-11-21T21:38:08.795Z,9.83
2022-11-21T21:43:12.106Z,9.18
2022-11-21T21:48:15.411Z,8.68
2022-11-21T21:53:18.382Z,8.27
2022-11-21T21:58:21.355Z,7.91
2022-11-21T22:03:24.304Z,7.60
2022-11-21T22:08:27.373Z,7.34
2022-11-21T22:13:30.350Z,7.13
2022-11-21T22:18:33.293Z,8.26
2022-11-21T22:23:36.199Z,11.73
2022-11-21T22:28:40.443Z,12.17
2022-11-21T22:33:44.392Z,10.54
2022-11-21T22:38:47.941Z,9.60
2022-11-21T22:43:56.273Z,8.96
2022-11-21T22:48:59.587Z,8.43
2022-11-21T22:54:02.696Z,7.98
2022-11-21T22:59:05.826Z,7.59
2022-11-21T23:04:12.057Z,7.26
2022-11-21T23:09:19.385Z,6.95
2022-11-21T23:14:22.349Z,6.71
2022-11-21T23:19:25.344Z,6.51
2022-11-21T23:24:28.234Z,7.57
2022-11-21T23:29:31.596Z,11.00
2022-11-21T23:34:34.756Z,11.05
2022-11-21T23:39:37.650Z,9.43
2022-11-21T23:44:40.568Z,8.50
2022-11-21T23:49:47.394Z,7.84
2022-11-21T23:54:53.007Z,7.27
2022-11-21T23:59:56.194Z,6.82
